Time;durP1;ratioP1;P1;durP2;ratioP2;P2;SDS_P1;SDS_P2;PMS_P1;PMS_P2;Temp;Humidity;BMP_temperature;BMP_pressure;BME280_temperature;BME280_humidity;BME280_pressure;Samples;Min_cycle;Max_cycle;Signal;HPM_P1;HPM_P2
2022/10/26 00:00:51;;;;;;;;;5.00;4.67;;;;;-147.17;100.00;-15917.19;5050215;28;51005;-43
2022/10/26 00:03:17;;;;;;;;;6.67;6.67;;;;;-147.17;100.00;-15917.19;5048816;28;51116;-42
2022/10/26 00:05:43;;;;;;;;;7.00;6.33;;;;;-147.17;100.00;-15917.19;5047943;28;50962;-42
2022/10/26 00:08:09;;;;;;;;;5.00;5.00;;;;;-147.17;100.00;-15917.19;5052272;28;51086;-42
2022/10/26 00:10:36;;;;;;;;;6.00;6.00;;;;;-147.17;100.00;-15917.19;5047495;28;51368;-42
2022/10/26 00:13:01;;;;;;;;;6.00;6.00;;;;;-147.17;100.00;-15917.19;5045547;28;51551;-42
2022/10/26 00:15:27;;;;;;;;;6.00;5.33;;;;;-147.17;100.00;-15917.19;5041750;28;51771;-43
2022/10/26 00:17:53;;;;;;;;;5.67;5.67;;;;;-147.17;100.00;-15917.19;5051530;28;51120;-43
2022/10/26 00:20:18;;;;;;;;;8.00;7.00;;;;;-147.17;100.00;-15917.19;5050990;28;51749;-43
2022/10/26 00:22:44;;;;;;;;;8.00;7.33;;;;;-147.17;100.00;-15917.19;5043688;28;51263;-43
2022/10/26 00:25:09;;;;;;;;;8.00;8.00;;;;;-147.17;100.00;-15917.19;5050449;28;51082;-43
2022/10/26 00:27:34;;;;;;;;;6.00;5.00;;;;;-147.17;100.00;-15917.19;5049466;28;51236;-42
2022/10/26 00:30:01;;;;;;;;;6.33;6.00;;;;;-147.17;100.00;-15917.19;5047704;28;51793;-43
2022/10/26 00:32:26;;;;;;;;;6.00;6.00;;;;;-147.17;100.00;-15917.19;5051845;28;51050;-42
2022/10/26 00:34:52;;;;;;;;;6.67;6.67;;;;;-147.17;100.00;-15917.19;5050564;28;51296;-42
2022/10/26 00:37:17;;;;;;;;;6.67;6.67;;;;;-147.17;100.00;-15917.19;5054897;28;51247;-43
2022/10/26 00:39:42;;;;;;;;;5.33;5.33;;;;;-147.17;100.00;-15917.19;5044694;28;56672;-44
2022/10/26 00:42:20;;;;;;;;;5.00;5.00;;;;;-147.17;100.00;-15917.19;5048925;28;53234;-43
2022/10/26 00:44:46;;;;;;;;;8.33;7.00;;;;;-147.17;100.00;-15917.19;5047462;28;51176;-44
2022/10/26 00:47:17;;;;;;;;;8.00;6.33;;;;;-147.17;100.00;-15917.19;5055872;28;51259;-43
2022/10/26 00:49:46;;;;;;;;;5.00;5.00;;;;;-147.17;100.00;-15917.19;5033574;28;51876;-43
2022/10/26 00:52:13;;;;;;;;;6.67;6.00;;;;;-147.17;100.00;-15917.19;5013935;28;51700;-43
2022/10/26 00:54:39;;;;;;;;;5.67;5.67;;;;;-147.17;100.00;-15917.19;5053378;28;51366;-43
2022/10/26 00:57:05;;;;;;;;;6.33;5.67;;;;;-147.17;100.00;-15917.19;5045872;28;50893;-43
2022/10/26 00:59:31;;;;;;;;;7.00;7.00;;;;;-147.17;100.00;-15917.19;5048614;28;52070;-43
2022/10/26 01:01:57;;;;;;;;;5.00;4.33;;;;;-147.17;100.00;-15917.19;5048090;28;51133;-45
2022/10/26 01:04:23;;;;;;;;;6.00;6.00;;;;;-147.17;100.00;-15917.19;5051134;28;51345;-44
2022/10/26 01:06:48;;;;;;;;;7.33;5.00;;;;;-147.17;100.00;-15917.19;5053453;28;51016;-42
2022/10/26 01:09:15;;;;;;;;;5.00;5.00;;;;;-147.17;100.00;-15917.19;5050594;28;52020;-44
2022/10/26 01:11:41;;;;;;;;;6.00;5.00;;;;;-147.17;100.00;-15917.19;5049238;28;51114;-42
2022/10/26 01:14:09;;;;;;;;;5.67;5.00;;;;;-147.17;100.00;-15917.19;5049936;28;51122;-42
2022/10/26 01:17:02;;;;;;;;;4.33;4.00;;;;;-147.17;100.00;-15917.19;5048717;28;51086;-43
2022/10/26 01:20:21;;;;;;;;;6.00;4.67;;;;;-147.17;100.00;-15917.19;5046726;28;52329;-43
2022/10/26 01:23:11;;;;;;;;;7.00;5.00;;;;;-147.17;100.00;-15917.19;4967445;28;51172;-43
2022/10/26 01:25:58;;;;;;;;;7.00;7.00;;;;;-147.17;100.00;-15917.19;5032663;28;51208;-44
2022/10/26 01:29:04;;;;;;;;;6.00;5.67;;;;;-147.17;100.00;-15917.19;5027851;28;51607;-43
2022/10/26 01:31:38;;;;;;;;;5.00;5.00;;;;;-147.17;100.00;-15917.19;5041974;28;51519;-44
2022/10/26 01:34:20;;;;;;;;;7.00;7.00;;;;;-147.17;100.00;-15917.19;5056070;28;51134;-44
2022/10/26 01:36:55;;;;;;;;;7.67;5.33;;;;;-147.17;100.00;-15917.19;5056074;28;51258;-43
2022/10/26 01:39:29;;;;;;;;;7.00;6.33;;;;;-147.17;100.00;-15917.19;5048058;28;51230;-44
2022/10/26 01:41:59;;;;;;;;;6.00;5.00;;;;;-147.17;100.00;-15917.19;5030972;28;52829;-44
2022/10/26 01:44:40;;;;;;;;;5.33;5.33;;;;;-147.17;100.00;-15917.19;5050035;28;50989;-43
2022/10/26 01:47:08;;;;;;;;;5.00;5.00;;;;;-147.17;100.00;-15917.19;5047805;28;52258;-42
2022/10/26 01:49:39;;;;;;;;;9.00;7.67;;;;;-147.17;100.00;-15917.19;5048227;28;51302;-43
2022/10/26 01:52:04;;;;;;;;;5.00;5.00;;;;;-147.17;100.00;-15917.19;5045122;28;53803;-43
2022/10/26 01:54:30;;;;;;;;;5.33;5.00;;;;;-147.17;100.00;-15917.19;5050712;28;51017;-44
2022/10/26 01:57:01;;;;;;;;;6.00;6.00;;;;;-147.17;100.00;-15917.19;5051422;28;51173;-43
2022/10/26 01:59:41;;;;;;;;;2.33;2.33;;;;;-147.17;100.00;-15917.19;5052568;28;51068;-43
2022/10/26 02:02:26;;;;;;;;;6.00;5.00;;;;;-147.17;100.00;-15917.19;5048199;28;51835;-43
2022/10/26 02:05:03;;;;;;;;;5.33;5.33;;;;;-147.17;100.00;-15917.19;5048968;28;51141;-43
2022/10/26 02:07:32;;;;;;;;;5.33;5.00;;;;;-147.17;100.00;-15917.19;5050154;28;51115;-43
2022/10/26 02:10:16;;;;;;;;;6.00;6.00;;;;;-147.17;100.00;-15917.19;5049142;28;51511;-43
2022/10/26 02:13:10;;;;;;;;;5.00;5.00;;;;;-147.17;100.00;-15917.19;5051518;28;51778;-43
2022/10/26 02:15:51;;;;;;;;;5.00;4.67;;;;;-147.17;100.00;-15917.19;5051750;28;51138;-43
2022/10/26 02:18:48;;;;;;;;;5.33;4.67;;;;;-147.17;100.00;-15917.19;5053186;28;51182;-44
2022/10/26 02:21:21;;;;;;;;;5.33;5.33;;;;;-147.17;100.00;-15917.19;5052810;28;51076;-43
2022/10/26 02:23:48;;;;;;;;;6.00;6.00;;;;;-147.17;100.00;-15917.19;5053931;28;52700;-43
2022/10/26 02:26:17;;;;;;;;;4.33;4.33;;;;;-147.17;100.00;-15917.19;5053981;28;51103;-44
2022/10/26 02:28:47;;;;;;;;;6.00;4.33;;;;;-147.17;100.00;-15917.19;5054065;28;51290;-43
2022/10/26 02:31:14;;;;;;;;;4.67;4.67;;;;;-147.17;100.00;-15917.19;5053333;28;51158;-42
2022/10/26 02:33:44;;;;;;;;;5.00;4.00;;;;;-147.17;100.00;-15917.19;5050729;28;51349;-43
2022/10/26 02:36:15;;;;;;;;;4.33;4.33;;;;;-147.17;100.00;-15917.19;5044790;28;51102;-43
2022/10/26 02:38:41;;;;;;;;;7.00;6.00;;;;;-147.17;100.00;-15917.19;5046228;28;51188;-43
2022/10/26 02:41:07;;;;;;;;;6.00;5.33;;;;;-147.17;100.00;-15917.19;5052584;28;51004;-43
2022/10/26 02:43:42;;;;;;;;;7.33;6.67;;;;;-147.17;100.00;-15917.19;5029382;28;51958;-43
2022/10/26 02:46:14;;;;;;;;;5.00;4.00;;;;;-147.17;100.00;-15917.19;5049898;28;50890;-44
2022/10/26 02:48:39;;;;;;;;;6.00;5.00;;;;;-147.17;100.00;-15917.19;5048022;28;51114;-44
2022/10/26 02:51:16;;;;;;;;;5.67;5.67;;;;;-147.17;100.00;-15917.19;5058540;28;51117;-43
2022/10/26 02:53:53;;;;;;;;;4.67;4.00;;;;;-147.17;100.00;-15917.19;5034243;28;53026;-44
2022/10/26 02:56:44;;;;;;;;;6.00;5.33;;;;;-147.17;100.00;-15917.19;5053404;28;51062;-43
2022/10/26 02:59:11;;;;;;;;;4.00;4.00;;;;;-147.17;100.00;-15917.19;5052466;28;51058;-42
2022/10/26 03:01:37;;;;;;;;;4.00;4.00;;;;;-147.17;100.00;-15917.19;5052162;28;51179;-43
2022/10/26 03:04:02;;;;;;;;;7.00;4.33;;;;;-147.17;100.00;-15917.19;5051726;28;51156;-43
2022/10/26 03:06:27;;;;;;;;;5.00;5.00;;;;;-147.17;100.00;-15917.19;5034030;28;51181;-43
2022/10/26 03:08:53;;;;;;;;;4.00;4.00;;;;;-147.17;100.00;-15917.19;5051040;28;51264;-43
2022/10/26 03:11:18;;;;;;;;;4.67;4.00;;;;;-147.17;100.00;-15917.19;5048560;28;51138;-44
2022/10/26 03:13:44;;;;;;;;;4.33;4.33;;;;;-147.17;100.00;-15917.19;5050344;28;57503;-44
2022/10/26 03:16:10;;;;;;;;;5.67;4.33;;;;;-147.17;100.00;-15917.19;5032768;28;51243;-44
2022/10/26 03:18:35;;;;;;;;;5.00;5.00;;;;;-147.17;100.00;-15917.19;5054430;28;51135;-43
2022/10/26 03:21:00;;;;;;;;;6.33;4.67;;;;;-147.17;100.00;-15917.19;5051213;28;51188;-43
2022/10/26 03:23:26;;;;;;;;;5.00;5.00;;;;;-147.17;100.00;-15917.19;5051262;28;51059;-44
2022/10/26 03:25:56;;;;;;;;;5.00;5.00;;;;;-147.17;100.00;-15917.19;5052811;28;51072;-43
2022/10/26 03:28:21;;;;;;;;;5.00;4.67;;;;;-147.17;100.00;-15917.19;5054163;28;51035;-43
2022/10/26 03:30:46;;;;;;;;;4.00;4.00;;;;;-147.17;100.00;-15917.19;5052744;28;51262;-44
2022/10/26 03:33:11;;;;;;;;;5.33;5.00;;;;;-147.17;100.00;-15917.19;5051584;28;61391;-43
2022/10/26 03:35:37;;;;;;;;;4.00;4.00;;;;;-147.17;100.00;-15917.19;5049902;28;51101;-42
2022/10/26 03:38:02;;;;;;;;;5.00;4.33;;;;;-147.17;100.00;-15917.19;5053119;28;51933;-42
2022/10/26 03:40:27;;;;;;;;;6.00;5.00;;;;;-147.17;100.00;-15917.19;5034393;28;51265;-44
2022/10/26 03:42:53;;;;;;;;;5.67;5.00;;;;;-147.17;100.00;-15917.19;5053689;28;59104;-42
2022/10/26 03:45:18;;;;;;;;;4.00;4.00;;;;;-147.17;100.00;-15917.19;5051025;28;51160;-43
2022/10/26 03:47:45;;;;;;;;;7.00;4.00;;;;;-147.17;100.00;-15917.19;5049903;28;51126;-42
2022/10/26 03:50:12;;;;;;;;;5.00;5.00;;;;;-147.17;100.00;-15917.19;5050148;28;51097;-43
2022/10/26 03:52:38;;;;;;;;;4.33;4.33;;;;;-147.17;100.00;-15917.19;5053502;28;51070;-44
2022/10/26 03:55:04;;;;;;;;;6.67;6.00;;;;;-147.17;100.00;-15917.19;5051027;28;51319;-43
2022/10/26 03:57:29;;;;;;;;;4.67;4.67;;;;;-147.17;100.00;-15917.19;5034913;28;51178;-42
2022/10/26 03:59:55;;;;;;;;;5.00;4.00;;;;;-147.17;100.00;-15917.19;5050414;28;51163;-42
2022/10/26 04:02:20;;;;;;;;;6.00;5.00;;;;;-147.17;100.00;-15917.19;5053075;28;50938;-43
2022/10/26 04:04:45;;;;;;;;;4.00;3.67;;;;;-147.17;100.00;-15917.19;5048631;28;51348;-43
2022/10/26 04:07:11;;;;;;;;;5.33;4.33;;;;;-147.17;100.00;-15917.19;5050928;28;51150;-42
2022/10/26 04:09:36;;;;;;;;;5.00;5.00;;;;;-147.17;100.00;-15917.19;5051055;28;51065;-42
2022/10/26 04:12:01;;;;;;;;;5.00;5.00;;;;;-147.17;100.00;-15917.19;5033599;28;51661;-43
2022/10/26 04:14:26;;;;;;;;;5.00;4.00;;;;;-147.17;100.00;-15917.19;5016641;28;51191;-42
2022/10/26 04:16:52;;;;;;;;;5.33;5.00;;;;;-147.17;100.00;-15917.19;5050260;28;51184;-44
2022/10/26 04:19:17;;;;;;;;;5.00;5.00;;;;;-147.17;100.00;-15917.19;5052819;28;51152;-43
2022/10/26 04:21:42;;;;;;;;;6.67;6.00;;;;;-147.17;100.00;-15917.19;5049550;28;54056;-42
2022/10/26 04:24:10;;;;;;;;;4.33;4.33;;;;;-147.17;100.00;-15917.19;5052088;28;51445;-43
2022/10/26 04:26:35;;;;;;;;;4.00;4.00;;;;;-147.17;100.00;-15917.19;5051604;28;51744;-43
2022/10/26 04:29:03;;;;;;;;;6.00;5.00;;;;;-147.17;100.00;-15917.19;5051318;28;51305;-43
2022/10/26 04:31:29;;;;;;;;;4.00;4.00;;;;;-147.17;100.00;-15917.19;5044665;28;52786;-43
2022/10/26 04:33:54;;;;;;;;;4.00;4.00;;;;;-147.17;100.00;-15917.19;5050510;28;51177;-43
2022/10/26 04:36:19;;;;;;;;;5.00;5.00;;;;;-147.17;100.00;-15917.19;5045452;28;51858;-43
2022/10/26 04:38:47;;;;;;;;;5.33;5.00;;;;;-147.17;100.00;-15917.19;5051535;28;51072;-43
2022/10/26 04:41:12;;;;;;;;;3.00;3.00;;;;;-147.17;100.00;-15917.19;5052716;28;51173;-43
2022/10/26 04:43:38;;;;;;;;;3.33;3.33;;;;;-147.17;100.00;-15917.19;5052724;28;51052;-43
2022/10/26 04:46:03;;;;;;;;;5.00;4.00;;;;;-147.17;100.00;-15917.19;5052121;28;51371;-43
2022/10/26 04:48:28;;;;;;;;;5.50;4.00;;;;;-147.17;100.00;-15917.19;5035323;28;52590;-43
2022/10/26 04:50:57;;;;;;;;;3.00;3.00;;;;;-147.17;100.00;-15917.19;5045595;28;53052;-43
2022/10/26 04:53:23;;;;;;;;;7.00;4.00;;;;;-147.17;100.00;-15917.19;5045081;28;51182;-43
2022/10/26 04:55:48;;;;;;;;;3.67;3.67;;;;;-147.17;100.00;-15917.19;5047458;28;50879;-43
2022/10/26 04:58:13;;;;;;;;;4.33;3.33;;;;;-147.17;100.00;-15917.19;5049575;28;53008;-43
2022/10/26 05:00:39;;;;;;;;;7.00;6.33;;;;;-147.17;100.00;-15917.19;5051512;28;52017;-43
2022/10/26 05:03:06;;;;;;;;;3.00;3.00;;;;;-147.17;100.00;-15917.19;5051492;28;55271;-43
2022/10/26 05:05:34;;;;;;;;;5.00;4.67;;;;;-147.17;100.00;-15917.19;5052522;28;50907;-43
2022/10/26 05:07:59;;;;;;;;;3.00;3.00;;;;;-147.17;100.00;-15917.19;5034091;28;51238;-43
2022/10/26 05:10:25;;;;;;;;;4.00;4.00;;;;;-147.17;100.00;-15917.19;5050917;28;51655;-43
2022/10/26 05:12:55;;;;;;;;;4.00;4.00;;;;;-147.17;100.00;-15917.19;5049470;28;51207;-43
2022/10/26 05:15:21;;;;;;;;;5.67;4.67;;;;;-147.17;100.00;-15917.19;5046616;28;51334;-43
2022/10/26 05:17:53;;;;;;;;;4.00;4.00;;;;;-147.17;100.00;-15917.19;5045460;28;51274;-43
2022/10/26 05:20:18;;;;;;;;;3.00;3.00;;;;;-147.17;100.00;-15917.19;5047962;28;52010;-43
2022/10/26 05:22:51;;;;;;;;;5.00;4.33;;;;;-147.17;100.00;-15917.19;5050604;28;51035;-43
2022/10/26 05:25:17;;;;;;;;;4.00;4.00;;;;;-147.17;100.00;-15917.19;5042403;28;51215;-43
2022/10/26 05:27:42;;;;;;;;;3.33;3.33;;;;;-147.17;100.00;-15917.19;5038976;28;51474;-43
2022/10/26 05:30:08;;;;;;;;;6.00;5.67;;;;;-147.17;100.00;-15917.19;5048611;28;61495;-43
2022/10/26 05:32:33;;;;;;;;;5.00;4.00;;;;;-147.17;100.00;-15917.19;5053778;28;51254;-43
2022/10/26 05:34:58;;;;;;;;;5.00;3.00;;;;;-147.17;100.00;-15917.19;5057433;28;51144;-42
2022/10/26 05:37:27;;;;;;;;;4.00;4.00;;;;;-147.17;100.00;-15917.19;5059193;28;51454;-42
2022/10/26 05:39:52;;;;;;;;;5.00;4.33;;;;;-147.17;100.00;-15917.19;5048639;28;51261;-44
2022/10/26 05:42:19;;;;;;;;;6.00;5.33;;;;;-147.17;100.00;-15917.19;5052181;28;51087;-43
2022/10/26 05:44:44;;;;;;;;;5.00;4.67;;;;;-147.17;100.00;-15917.19;5052285;28;51222;-44
2022/10/26 05:47:10;;;;;;;;;4.33;4.00;;;;;-147.17;100.00;-15917.19;5054112;28;51684;-44
2022/10/26 05:49:35;;;;;;;;;5.67;5.00;;;;;-147.17;100.00;-15917.19;5055132;28;55164;-42
2022/10/26 05:52:00;;;;;;;;;5.33;5.33;;;;;-147.17;100.00;-15917.19;5035975;28;51148;-43
2022/10/26 05:54:26;;;;;;;;;4.00;4.00;;;;;-147.17;100.00;-15917.19;5054340;28;51087;-44
2022/10/26 05:56:51;;;;;;;;;4.67;4.00;;;;;-147.17;100.00;-15917.19;5036979;28;54609;-43
2022/10/26 05:59:17;;;;;;;;;4.00;4.00;;;;;-147.17;100.00;-15917.19;5034267;28;51885;-43
2022/10/26 06:02:00;;;;;;;;;6.33;6.00;;;;;-147.17;100.00;-15917.19;5033326;28;51310;-44
2022/10/26 06:04:30;;;;;;;;;6.33;5.33;;;;;-147.17;100.00;-15917.19;5053818;28;51195;-44
2022/10/26 06:06:56;;;;;;;;;5.33;5.00;;;;;-147.17;100.00;-15917.19;5053233;28;51377;-44
2022/10/26 06:09:22;;;;;;;;;4.33;4.33;;;;;-147.17;100.00;-15917.19;5053569;28;50981;-43
2022/10/26 06:11:48;;;;;;;;;5.33;5.33;;;;;-147.17;100.00;-15917.19;5052677;28;51052;-44
2022/10/26 06:14:14;;;;;;;;;6.00;5.00;;;;;-147.17;100.00;-15917.19;5037274;28;51249;-43
2022/10/26 06:17:00;;;;;;;;;4.00;3.00;;;;;-147.17;100.00;-15917.19;5019740;28;51199;-44
2022/10/26 06:19:25;;;;;;;;;3.67;3.67;;;;;-147.17;100.00;-15917.19;5054585;28;52079;-43
2022/10/26 06:22:00;;;;;;;;;7.00;7.00;;;;;-147.17;100.00;-15917.19;5053978;28;51162;-44
2022/10/26 06:25:03;;;;;;;;;5.00;5.00;;;;;-147.17;100.00;-15917.19;5052731;28;51538;-44
2022/10/26 06:27:49;;;;;;;;;5.33;4.67;;;;;-147.17;100.00;-15917.19;5045987;28;51111;-44
2022/10/26 06:30:14;;;;;;;;;5.00;4.00;;;;;-147.17;100.00;-15917.19;5044483;28;52915;-43
2022/10/26 06:32:44;;;;;;;;;13.00;11.00;;;;;-147.17;100.00;-15917.19;5051148;28;51072;-44
2022/10/26 06:35:21;;;;;;;;;9.67;8.00;;;;;-147.17;100.00;-15917.19;5051259;28;51364;-44
2022/10/26 06:37:48;;;;;;;;;10.33;10.00;;;;;-147.17;100.00;-15917.19;5052289;28;51205;-43
2022/10/26 06:40:15;;;;;;;;;5.33;4.67;;;;;-147.17;100.00;-15917.19;5034437;28;51778;-43
2022/10/26 06:42:41;;;;;;;;;6.00;6.00;;;;;-147.17;100.00;-15917.19;5036139;28;51211;-43
2022/10/26 06:45:14;;;;;;;;;8.67;8.67;;;;;-147.17;100.00;-15917.19;5054405;28;51179;-44
2022/10/26 06:47:43;;;;;;;;;9.00;8.67;;;;;-147.17;100.00;-15917.19;5054771;28;51134;-44
2022/10/26 06:50:29;;;;;;;;;7.00;6.33;;;;;-147.17;100.00;-15917.19;5053577;28;51121;-43
2022/10/26 06:53:09;;;;;;;;;7.00;6.00;;;;;-147.17;100.00;-15917.19;5051082;28;51018;-43
2022/10/26 06:55:46;;;;;;;;;7.67;7.67;;;;;-147.17;100.00;-15917.19;5054026;28;51070;-43
2022/10/26 06:58:18;;;;;;;;;13.67;12.33;;;;;-147.17;100.00;-15917.19;5027414;28;51015;-44
2022/10/26 07:00:45;;;;;;;;;10.00;10.00;;;;;-147.17;100.00;-15917.19;5053012;28;51823;-44
2022/10/26 07:03:11;;;;;;;;;9.00;7.00;;;;;-147.17;100.00;-15917.19;5037408;28;51080;-44
2022/10/26 07:05:36;;;;;;;;;13.33;12.33;;;;;-147.17;100.00;-15917.19;5053977;28;50981;-44
2022/10/26 07:08:01;;;;;;;;;7.00;7.00;;;;;-147.17;100.00;-15917.19;5054442;28;51246;-44
2022/10/26 07:10:27;;;;;;;;;7.67;6.33;;;;;-147.17;100.00;-15917.19;5052962;28;51821;-44
2022/10/26 07:12:52;;;;;;;;;5.00;5.00;;;;;-147.17;100.00;-15917.19;5053961;28;50978;-44
2022/10/26 07:15:17;;;;;;;;;6.00;6.00;;;;;-147.17;100.00;-15917.19;5053705;28;51299;-44
2022/10/26 07:17:44;;;;;;;;;6.67;6.00;;;;;-147.17;100.00;-15917.19;5053503;28;51311;-44
2022/10/26 07:20:11;;;;;;;;;6.00;5.67;;;;;-147.17;100.00;-15917.19;5053451;28;52700;-43
2022/10/26 07:22:36;;;;;;;;;6.67;6.67;;;;;-147.17;100.00;-15917.19;5053990;28;51048;-43
2022/10/26 07:25:02;;;;;;;;;7.00;6.33;;;;;-147.17;100.00;-15917.19;5053691;28;51036;-48
2022/10/26 07:27:27;;;;;;;;;6.00;5.00;;;;;-147.17;100.00;-15917.19;5053746;28;51232;-43
2022/10/26 07:29:53;;;;;;;;;6.67;6.67;;;;;-147.17;100.00;-15917.19;5052977;28;51785;-43
2022/10/26 07:32:18;;;;;;;;;9.33;7.00;;;;;-147.17;100.00;-15917.19;5053894;28;51220;-42
2022/10/26 07:34:43;;;;;;;;;6.00;6.00;;;;;-147.17;100.00;-15917.19;5053587;28;51094;-44
2022/10/26 07:37:09;;;;;;;;;8.67;7.67;;;;;-147.17;100.00;-15917.19;5054075;28;51082;-43
2022/10/26 07:39:34;;;;;;;;;6.33;6.00;;;;;-147.17;100.00;-15917.19;5052912;28;54997;-43
2022/10/26 07:41:59;;;;;;;;;10.00;8.00;;;;;-147.17;100.00;-15917.19;5053455;28;51222;-43
2022/10/26 07:44:25;;;;;;;;;10.33;9.00;;;;;-147.17;100.00;-15917.19;5034850;28;51250;-43
2022/10/26 07:46:50;;;;;;;;;10.00;9.00;;;;;-147.17;100.00;-15917.19;5053467;28;51033;-44
2022/10/26 07:49:16;;;;;;;;;8.00;7.00;;;;;-147.17;100.00;-15917.19;5052661;28;52630;-43
2022/10/26 07:51:41;;;;;;;;;7.67;6.67;;;;;-147.17;100.00;-15917.19;5055557;28;50990;-43
2022/10/26 07:54:06;;;;;;;;;9.00;8.00;;;;;-147.17;100.00;-15917.19;5053403;28;50977;-43
2022/10/26 07:56:32;;;;;;;;;6.00;6.00;;;;;-147.17;100.00;-15917.19;5035778;28;51337;-43
2022/10/26 07:58:57;;;;;;;;;8.00;7.00;;;;;-147.17;100.00;-15917.19;5052924;28;57799;-43
2022/10/26 08:01:22;;;;;;;;;6.33;6.00;;;;;-147.17;100.00;-15917.19;5053249;28;50914;-44
2022/10/26 08:03:52;;;;;;;;;6.00;5.00;;;;;-147.17;100.00;-15917.19;5053493;28;51052;-43
2022/10/26 08:06:17;;;;;;;;;5.00;4.67;;;;;-147.17;100.00;-15917.19;5053220;28;51307;-43
2022/10/26 08:08:42;;;;;;;;;6.67;5.67;;;;;-147.17;100.00;-15917.19;5051618;28;52383;-44
2022/10/26 08:11:08;;;;;;;;;5.33;4.67;;;;;-147.17;100.00;-15917.19;5052210;28;54474;-44
2022/10/26 08:13:34;;;;;;;;;5.00;5.00;;;;;-147.17;100.00;-15917.19;5052876;28;52027;-43
2022/10/26 08:16:02;;;;;;;;;4.67;4.67;;;;;-147.17;100.00;-15917.19;5053419;28;51024;-44
2022/10/26 08:18:28;;;;;;;;;6.00;6.00;;;;;-147.17;100.00;-15917.19;5052391;28;51237;-43
2022/10/26 08:20:53;;;;;;;;;4.67;4.67;;;;;-147.17;100.00;-15917.19;5052750;28;51141;-43
2022/10/26 08:23:20;;;;;;;;;5.00;4.00;;;;;-147.17;100.00;-15917.19;5052183;28;51112;-43
2022/10/26 08:25:45;;;;;;;;;5.67;5.00;;;;;-147.17;100.00;-13344.81;5052675;28;51301;-43
2022/10/26 08:28:10;;;;;;;;;2.00;2.00;;;;;-147.17;100.00;-10805.09;5052180;28;51041;-43
2022/10/26 08:30:36;;;;;;;;;5.00;4.67;;;;;-147.17;100.00;-13278.97;5052573;28;51073;-43
2022/10/26 08:33:04;;;;;;;;;5.67;5.67;;;;;-147.17;100.00;-15917.19;5053229;28;51124;-44
2022/10/26 08:35:30;;;;;;;;;3.67;3.67;;;;;-147.17;100.00;-15917.19;5052495;28;51278;-43
2022/10/26 08:37:55;;;;;;;;;5.00;5.00;;;;;-147.17;100.00;-15917.19;5051891;28;51712;-44
2022/10/26 08:40:26;;;;;;;;;5.00;5.00;;;;;-147.17;100.00;-15917.19;5052473;28;51146;-44
2022/10/26 08:42:57;;;;;;;;;5.00;4.33;;;;;-147.17;100.00;-15917.19;5052129;28;51220;-44
2022/10/26 08:45:28;;;;;;;;;5.00;4.33;;;;;-147.17;100.00;-15917.19;5034624;28;51226;-44
2022/10/26 08:48:04;;;;;;;;;3.33;3.33;;;;;-147.17;100.00;-15917.19;5052401;28;51801;-44
2022/10/26 08:50:39;;;;;;;;;3.00;3.00;;;;;-147.17;100.00;-15917.19;5050564;28;51383;-44
2022/10/26 08:53:28;;;;;;;;;3.33;3.00;;;;;-147.17;100.00;-15917.19;5052089;28;51070;-45
2022/10/26 08:55:59;;;;;;;;;4.00;3.33;;;;;-147.17;100.00;-15917.19;5051747;28;50910;-44
2022/10/26 08:58:33;;;;;;;;;5.33;5.33;;;;;-147.17;100.00;-15917.19;5051992;28;50968;-44
2022/10/26 09:00:59;;;;;;;;;3.67;3.33;;;;;-147.17;100.00;-15917.19;5054042;28;51179;-44
2022/10/26 09:03:24;;;;;;;;;4.00;4.00;;;;;-147.17;100.00;-15917.19;5052131;28;51360;-42
2022/10/26 09:06:11;;;;;;;;;5.00;5.00;;;;;-147.17;100.00;-15917.19;5034242;28;51104;-44
2022/10/26 09:08:45;;;;;;;;;3.33;3.00;;;;;-147.17;100.00;-15917.19;5050493;28;50998;-48
2022/10/26 09:11:23;;;;;;;;;4.00;4.00;;;;;-147.17;100.00;-15917.19;5055699;28;51016;-44
2022/10/26 09:14:07;;;;;;;;;3.00;2.00;;;;;-147.17;100.00;-15917.19;5051345;28;51151;-44
2022/10/26 09:17:03;;;;;;;;;4.00;4.00;;;;;-147.17;100.00;-15917.19;5051835;28;51110;-44
2022/10/26 09:19:59;;;;;;;;;3.67;3.67;;;;;-147.17;100.00;-15917.19;5050495;28;52896;-44
2022/10/26 09:22:33;;;;;;;;;4.00;4.00;;;;;-147.17;100.00;-15917.19;5051839;28;50904;-45
2022/10/26 09:25:11;;;;;;;;;2.67;2.33;;;;;-147.17;100.00;-15917.19;5051854;28;51183;-45
2022/10/26 09:27:42;;;;;;;;;4.00;3.00;;;;;-147.17;100.00;-15917.19;5051852;28;51207;-48
2022/10/26 09:30:19;;;;;;;;;3.33;3.33;;;;;-147.17;100.00;-15917.19;5051611;28;51147;-45
2022/10/26 09:32:53;;;;;;;;;4.00;3.33;;;;;-147.17;100.00;-15917.19;5033965;28;51106;-44
2022/10/26 09:35:24;;;;;;;;;3.33;2.67;;;;;-147.17;100.00;-15917.19;5051539;28;51134;-44
2022/10/26 09:37:57;;;;;;;;;3.67;3.00;;;;;-147.17;100.00;-15917.19;5051172;28;51148;-51
2022/10/26 09:40:22;;;;;;;;;3.00;3.00;;;;;-147.17;100.00;-15915.72;5044978;28;52174;-44
2022/10/26 09:42:58;;;;;;;;;4.33;3.33;;;;;-147.17;100.00;-15917.19;5052078;28;51005;-46
2022/10/26 09:45:31;;;;;;;;;3.67;3.33;;;;;-147.17;100.00;-15915.72;5052154;28;51176;-44
2022/10/26 09:48:28;;;;;;;;;3.67;3.33;;;;;-147.17;100.00;-15915.72;5050553;28;51177;-44
2022/10/26 09:50:55;;;;;;;;;3.00;1.67;;;;;-147.17;100.00;-15420.25;5033556;28;51136;-44
2022/10/26 09:53:21;;;;;;;;;2.33;2.33;;;;;-147.17;100.00;-15172.50;5033590;28;51025;-44
2022/10/26 09:55:49;;;;;;;;;5.00;3.67;;;;;-147.17;100.00;-13685.63;5050762;28;51726;-44
2022/10/26 09:58:25;;;;;;;;;4.67;3.00;;;;;-147.17;100.00;-12198.19;5051027;28;50908;-44
2022/10/26 10:00:51;;;;;;;;;3.00;2.33;;;;;-147.17;100.00;-7235.84;5049837;28;51091;-44
2022/10/26 10:03:19;;;;;;;;;2.33;2.00;;;;;-147.17;100.00;-6987.56;5051565;28;51137;-44
2022/10/26 10:05:45;;;;;;;;;2.00;2.00;;;;;-147.17;100.00;-7732.34;5033529;28;51131;-43
2022/10/26 10:08:20;;;;;;;;;2.00;1.00;;;;;-147.17;100.00;-7980.59;5049724;28;51359;-46
2022/10/26 10:11:15;;;;;;;;;3.33;3.00;;;;;-147.17;100.00;-6739.25;5030311;28;51063;-44
2022/10/26 10:13:43;;;;;;;;;3.00;3.00;;;;;-147.17;100.00;-4503.81;5034181;28;51100;-44
2022/10/26 10:16:22;;;;;;;;;22.75;22.00;;;;;-147.17;100.00;-2018.47;5050427;28;51296;-45
2022/10/26 10:18:56;;;;;;;;;5.00;4.67;;;;;-147.17;100.00;-4503.81;5049301;28;51574;-44
2022/10/26 10:21:36;;;;;;;;;16.00;16.00;;;;;-147.17;100.00;-6490.94;5050313;28;51140;-45
2022/10/26 10:24:03;;;;;;;;;4.00;2.33;;;;;-147.17;100.00;-7732.34;5032744;28;51227;-44
2022/10/26 10:26:29;;;;;;;;;4.00;4.00;;;;;-147.17;100.00;-11950.22;5050674;28;51164;-44
2022/10/26 10:28:59;;;;;;;;;4.00;3.00;;;;;-147.17;100.00;-14181.31;5050967;28;51114;-44
2022/10/26 10:31:32;;;;;;;;;4.33;3.67;;;;;-147.17;100.00;-13189.88;5053672;28;50948;-45
2022/10/26 10:33:58;;;;;;;;;4.00;4.00;;;;;-147.17;100.00;-11950.22;5048683;28;51175;-44
2022/10/26 10:36:28;;;;;;;;;2.67;2.00;;;;;-147.17;100.00;-13189.88;5075150;28;51246;-43
2022/10/26 10:38:54;;;;;;;;;3.33;3.33;;;;;-147.17;100.00;-12694.06;5060024;28;51964;-44
2022/10/26 10:41:28;;;;;;;;;2.00;2.00;;;;;-147.17;100.00;-10462.09;5053609;28;51213;-44
2022/10/26 10:44:28;;;;;;;;;3.33;3.33;;;;;-147.17;100.00;-10958.19;5054541;28;51081;-45
2022/10/26 10:47:05;;;;;;;;;2.00;2.00;;;;;-147.17;100.00;-8228.81;5053589;28;51073;-44
2022/10/26 10:49:31;;;;;;;;;4.00;3.00;;;;;-147.17;100.00;-6739.25;5054535;28;51066;-44
2022/10/26 10:51:57;;;;;;;;;7.33;7.00;;;;;-147.17;100.00;-7980.59;5041352;28;51850;-44
2022/10/26 10:54:30;;;;;;;;;4.00;3.67;;;;;-147.17;100.00;-7235.84;5053836;28;51037;-45
2022/10/26 10:57:19;;;;;;;;;7.67;6.33;;;;;-147.17;100.00;-7484.09;5054225;28;51188;-44
2022/10/26 11:00:04;;;;;;;;;2.33;2.00;;;;;-147.17;100.00;-8477.03;5054193;28;51327;-43
2022/10/26 11:03:20;;;;;;;;;2.33;1.67;;;;;-147.17;100.00;-6987.56;5050985;28;51020;-45
2022/10/26 11:05:48;;;;;;;;;5.00;5.00;;;;;-147.17;100.00;-5994.25;4972257;28;51067;-44
2022/10/26 11:08:21;;;;;;;;;1.67;1.67;;;;;-147.17;100.00;-3012.78;4972366;28;51133;-44
2022/10/26 11:11:04;;;;;;;;;3.33;3.00;;;;;-147.17;100.00;-3509.84;5022265;28;51345;-43
2022/10/26 11:13:36;;;;;;;;;3.00;3.00;;;;;-147.17;100.00;-4503.81;5053189;28;51940;-44
2022/10/26 11:16:10;;;;;;;;;2.00;2.00;;;;;-147.17;100.00;-2764.22;5053045;28;50957;-44